Latest Coastal Weather Observations for Frederick Reef

IDQ60701

Issued at 9:01 pm EST Monday 27 February 2017 (issued every 10 minutes, with the page automatically refreshed every 10 minutes)

About coastal observations | Map of coastal stations | Coastal observations for QLD | Marine services | Other Formats
Station Details ID: 200701 Name: FREDERICK REEF Lat: -20.94 Lon: 154.40 Height: 4.9 m
Data from the previous 72 hours. | See also: Recent months for locations in Queensland
Date/Time
EST
Temp
°C
Wind Pressure Rain since
9am
mm
Weather Cloud Vis
km
Sea
Height
m
Swell
Dir  Spd
kts
Gust
kts
hPa Trend Height
m
Period
s
Dir
27/09:00pm 27.4 ESE 22 27 1012.7 - - - - - - - - -
27/08:30pm 27.4 SE 22 25 1012.6 - - - - - - - - -
27/08:00pm 27.3 SE 22 25 1012.3 - - - - - - - - -
27/07:30pm 27.4 SE 22 25 1011.9 - - - - - - - - -
27/07:00pm 27.3 ESE 21 23 1011.6 - - - - - - - - -
27/06:30pm 27.1 SE 21 24 1011.3 - - - - - - - - -
27/06:00pm 27.2 SE 20 22 1011.0 - - - - - - - - -
27/05:30pm 27.4 SE 20 23 1010.8 - - - - - - - - -
27/05:00pm 27.3 SE 20 23 1010.4 - - - - - - - - -
27/04:30pm 27.3 SE 19 22 1010.3 - - - - - - - - -
27/04:00pm 27.2 ESE 19 22 1010.1 - - - - - - - - -
27/03:30pm 27.5 ESE 19 22 1010.2 - - - - - - - - -
27/03:00pm 27.3 SE 19 22 1010.1 - - - - - - - - -
27/02:30pm 27.7 ESE 19 22 1010.4 - - - - - - - - -
27/02:00pm 27.7 ESE 17 20 1010.5 - - - - - - - - -
27/01:30pm 27.4 ESE 18 21 1010.9 - - - - - - - - -
27/01:00pm 27.5 ESE 18 21 1011.1 - - - - - - - - -
27/12:30pm 27.3 SE 18 20 1011.5 - - - - - - - - -
27/12:00pm 27.2 ESE 18 20 1011.7 - - - - - - - - -
27/11:30am 27.5 ESE 18 20 1011.9 - - - - - - - - -
27/11:00am 27.2 ESE 17 19 1012.0 - - - - - - - - -
27/10:30am 27.2 ESE 16 19 1012.2 - - - - - - - - -
27/10:00am 27.3 ESE 17 20 1012.0 - - - - - - - - -
27/09:30am 27.3 ESE 17 19 1012.2 - - - - - - - - -
27/09:00am 27.3 E 18 20 1012.1 - - - - - - - - -
27/08:30am 27.4 E 18 21 1012.1 - - - - - - - - -
27/08:00am 27.5 E 18 20 1011.9 - - - - - - - - -
27/07:30am 27.1 E 19 21 1011.6 - - - - - - - - -
27/07:00am 27.1 ESE 20 23 1011.6 - - - - - - - - -
27/01:30am 26.2 SE 23 30 1010.5 - - - - - - - - -
27/01:21am 26.8 SE 21 24 1010.6 - - - - - - - - -
27/01:00am 26.0 E 19 25 1010.7 - - - - - - - - -
27/12:54am 26.7 E 21 25 1011.1 - - - - - - - - -
27/12:42am 26.3 SE 20 25 1010.9 - - - - - - - - -
27/12:30am 27.0 ESE 24 27 1011.1 - - - - - - - - -
27/12:00am 27.3 ESE 21 23 1011.1 - - - - - - - - -
 
Date/Time
EST
Temp
°C
Wind Pressure Rain since
9am
mm
Weather Cloud Vis
km
Sea
Height
m
Swell
Dir  Spd
kts
Gust
kts
hPa Trend Height
m
Period
s
Dir
26/11:30pm 26.7 ESE 25 27 1011.4 - - - - - - - - -
26/11:00pm 26.8 ESE 23 26 1011.4 - - - - - - - - -
26/10:30pm 27.0 ESE 22 26 1011.7 - - - - - - - - -
26/10:00pm 26.7 ESE 20 23 1011.8 - - - - - - - - -
26/09:35pm 26.7 SE 24 35 1011.5 - - - - - - - - -
26/09:30pm 27.2 SE 22 25 1011.7 - - - - - - - - -
26/09:00pm 27.0 ESE 23 25 1011.6 - - - - - - - - -
26/08:30pm 27.5 ESE 22 25 1011.4 - - - - - - - - -
26/08:00pm 27.7 ESE 21 25 1011.1 - - - - - - - - -
26/07:30pm 27.5 SE 21 23 1010.9 - - - - - - - - -
26/07:00pm 27.6 ESE 21 23 1010.6 - - - - - - - - -
26/06:30pm 27.3 SE 19 21 1010.4 - - - - - - - - -
26/06:00pm 27.6 ESE 19 21 1010.3 - - - - - - - - -
26/05:30pm 27.6 SE 18 21 1010.2 - - - - - - - - -
26/05:00pm 27.5 SE 17 20 1009.8 - - - - - - - - -
26/04:30pm 27.4 SE 18 20 1009.7 - - - - - - - - -
26/04:00pm 27.5 SE 16 18 1009.6 - - - - - - - - -
26/03:30pm 27.6 ESE 17 19 1009.7 - - - - - - - - -
26/03:00pm 27.6 ESE 16 20 1009.4 - - - - - - - - -
26/02:30pm 27.6 SE 16 19 1009.4 - - - - - - - - -
26/02:00pm 27.2 SE 17 19 1009.4 - - - - - - - - -
26/01:30pm 27.7 SE 16 19 1009.8 - - - - - - - - -
26/01:00pm 27.3 SE 16 19 1009.9 - - - - - - - - -
26/12:30pm 27.3 ESE 16 18 1010.4 - - - - - - - - -
26/12:00pm 27.2 SE 15 17 1010.6 - - - - - - - - -
26/11:30am 27.6 SE 15 17 1011.0 - - - - - - - - -
26/11:00am 27.3 ESE 15 18 1011.0 - - - - - - - - -
26/10:30am 27.2 SE 16 18 1011.1 - - - - - - - - -
26/10:00am 27.6 ESE 15 16 1011.0 - - - - - - - - -
26/09:30am 27.5 ESE 13 15 1011.3 - - - - - - - - -
26/09:00am 27.3 ESE 14 16 1011.2 - - - - - - - - -
26/08:30am 27.5 ESE 16 18 1011.3 - - - - - - - - -
26/08:00am 27.0 ESE 15 18 1011.1 - - - - - - - - -
26/07:30am 26.8 ESE 13 16 1010.9 - - - - - - - - -
26/07:00am 26.3 ESE 11 13 1010.6 - - - - - - - - -
26/06:30am 25.8 ENE 15 16 1010.3 - - - - - - - - -
26/06:00am 24.5 ENE 19 21 1010.1 - - - - - - - - -
26/05:51am 24.7 ENE 18 23 1010.1 - - - - - - - - -
26/05:30am 24.3 E 21 24 1009.9 - - - - - - - - -
26/05:00am 25.0 ESE 24 26 1009.5 - - - - - - - - -
26/04:30am 25.8 SE 18 21 1009.3 - - - - - - - - -
26/04:11am 26.0 SE 15 19 1009.1 - - - - - - - - -
26/04:00am 26.3 SE 1 3 1009.0 - - - - - - - - -
26/03:30am 26.7 ESE 10 16 1009.1 - - - - - - - - -
26/03:00am 26.6 ESE 1 3 1009.2 - - - - - - - - -
26/02:30am 26.4 ESE 1 3 1009.3 - - - - - - - - -
26/02:00am 26.2 ESE 1 3 1009.4 - - - - - - - - -
26/01:30am 27.2 ESE 1 3 1009.8 - - - - - - - - -
26/01:00am 26.8 ESE 1 3 1010.1 - - - - - - - - -
26/12:30am 27.8 E 1 4 1010.6 - - - - - - - - -
26/12:00am 27.1 E 1 3 1010.6 - - - - - - - - -
 
Date/Time
EST
Temp
°C
Wind Pressure Rain since
9am
mm
Weather Cloud Vis
km
Sea
Height
m
Swell
Dir  Spd
kts
Gust
kts
hPa Trend Height
m
Period
s
Dir
25/11:30pm 27.4 E 1 3 1010.8 - - - - - - - - -
25/11:00pm 27.2 ESE 1 2 1010.9 - - - - - - - - -
25/10:30pm 27.4 ESE 1 3 1011.1 - - - - - - - - -
25/10:00pm 27.3 ESE 1 3 1011.0 - - - - - - - - -
25/09:30pm 27.4 ESE 1 3 1011.3 - - - - - - - - -
25/09:00pm 27.3 ESE 1 3 1011.2 - - - - - - - - -
25/08:30pm 27.4 ESE 1 3 1011.2 - - - - - - - - -
25/08:00pm 27.8 SE 1 3 1011.0 - - - - - - - - -
25/07:30pm 27.4 SE 1 3 1010.9 - - - - - - - - -
25/07:00pm 27.4 ESE 1 3 1010.7 - - - - - - - - -
25/06:30pm 27.0 ESE 19 21 1010.4 - - - - - - - - -
25/06:00pm 27.5 ESE 16 19 1010.2 - - - - - - - - -
25/05:30pm 27.3 SE 17 19 1010.0 - - - - - - - - -
25/05:00pm 27.8 SE 16 19 1009.6 - - - - - - - - -
25/04:30pm 27.4 SE 17 19 1009.5 - - - - - - - - -
25/04:00pm 27.7 SE 17 19 1009.3 - - - - - - - - -
25/03:30pm 27.8 ESE 16 17 1009.4 - - - - - - - - -
25/03:00pm 27.5 SE 16 19 1009.3 - - - - - - - - -
25/02:30pm 27.6 SE 16 18 1009.6 - - - - - - - - -
25/02:00pm 27.4 ESE 16 19 1009.8 - - - - - - - - -
25/01:30pm 27.2 ESE 17 19 1010.2 - - - - - - - - -
25/01:00pm 27.4 SE 17 19 1010.2 - - - - - - - - -
25/12:30pm 27.4 ESE 17 19 1010.7 - - - - - - - - -
25/12:00pm 27.5 ESE 16 19 1010.9 - - - - - - - - -
25/11:30am 27.6 E 13 17 1011.3 - - - - - - - - -
25/11:00am 27.5 ESE 14 16 1011.4 - - - - - - - - -
25/10:30am 27.5 E 1 3 1011.7 - - - - - - - - -
25/10:00am 27.3 ESE 14 16 1011.8 - - - - - - - - -
25/09:30am 27.6 ESE 14 15 1012.0 - - - - - - - - -
25/09:00am 27.3 ESE 13 16 1012.0 - - - - - - - - -
25/08:30am 27.3 ESE 14 16 1011.9 - - - - - - - - -
25/08:00am 27.6 ESE 13 14 1011.8 - - - - - - - - -
25/07:30am 27.5 ESE 14 15 1011.6 - - - - - - - - -
25/07:00am 27.3 ESE 14 16 1011.3 - - - - - - - - -
25/06:30am 27.5 ESE 14 16 1011.0 - - - - - - - - -
25/06:00am 27.4 ESE 15 19 1010.6 - - - - - - - - -
25/05:30am 27.2 ESE 16 18 1010.6 - - - - - - - - -
25/05:11am 27.2 SE 15 17 1010.6 - - - - - - - - -
25/05:00am 26.8 SE 14 3 1010.4 - - - - - - - - -
25/04:30am 27.1 ESE 1 3 1010.3 - - - - - - - - -
25/04:00am 27.2 ESE 1 3 1010.2 - - - - - - - - -
25/03:30am 27.0 CALM 0 2 1010.3 - - - - - - - - -
25/03:00am 27.7 ESE 1 - 1010.3 - - - - - - - - -
25/02:30am 27.0 CALM 0 3 1010.5 - - - - - - - - -
25/02:00am 27.0 CALM 0 3 1010.5 - - - - - - - - -
25/01:30am 27.3 ESE 1 3 1010.7 - - - - - - - - -
25/01:00am 27.3 SE 1 3 1010.9 - - - - - - - - -
25/12:30am 26.9 ESE 1 3 1011.4 - - - - - - - - -
25/12:00am 27.5 ESE 1 3 1011.6 - - - - - - - - -
 
Date/Time
EST
Temp
°C
Wind Pressure Rain since
9am
mm
Weather Cloud Vis
km
Sea
Height
m
Swell
Dir  Spd
kts
Gust
kts
hPa Trend Height
m
Period
s
Dir
24/11:30pm 27.5 CALM 0 3 1012.0 - - - - - - - - -
24/11:00pm 27.7 SE 1 3 1012.2 - - - - - - - - -
24/10:30pm 27.5 ESE 1 3 1012.7 - - - - - - - - -
24/10:00pm 27.6 ESE 1 3 1012.8 - - - - - - - - -
24/09:30pm 27.7 ESE 1 3 1013.0 - - - - - - - - -

Other Formats:

Comma delimited format used in spreadsheet applications
http://www.bom.gov.au/fwo/IDQ60701/IDQ60701.94393.axf

JavaScript Object Notation format (JSON) in row-major order
http://www.bom.gov.au/fwo/IDQ60701/IDQ60701.94393.json